createdAt,value
2019-04-16T00:00:44.914Z,0
2019-04-16T00:01:45.664Z,0
2019-04-16T00:02:48.524Z,0
2019-04-16T00:03:46.948Z,0
2019-04-16T00:04:47.630Z,0
2019-04-16T00:05:48.314Z,0
2019-04-16T00:06:48.999Z,0
2019-04-16T00:07:49.687Z,0
2019-04-16T00:08:50.371Z,0
2019-04-16T00:09:51.063Z,0
2019-04-16T00:10:51.749Z,0
2019-04-16T00:11:52.394Z,0
2019-04-16T00:12:53.079Z,0
2019-04-16T00:13:53.763Z,0
2019-04-16T00:14:54.452Z,0
2019-04-16T00:15:55.145Z,0
2019-04-16T00:16:55.916Z,0
2019-04-16T00:17:56.491Z,0
2019-04-16T00:19:01.093Z,0
2019-04-16T00:19:57.856Z,0
2019-04-16T00:20:58.541Z,0
2019-04-16T00:21:59.273Z,0
2019-04-16T00:22:59.899Z,0
2019-04-16T00:24:00.594Z,0
2019-04-16T00:25:01.263Z,0
2019-04-16T00:26:01.945Z,0
2019-04-16T00:27:02.630Z,0
2019-04-16T00:28:03.315Z,0
2019-04-16T00:29:03.992Z,0
2019-04-16T00:30:05.576Z,0
2019-04-16T00:31:05.841Z,0
2019-04-16T00:32:09.135Z,0
2019-04-16T00:33:07.622Z,0
2019-04-16T00:34:07.386Z,0
2019-04-16T00:35:08.072Z,0
2019-04-16T00:36:08.752Z,0
2019-04-16T00:37:09.434Z,0
2019-04-16T00:38:10.119Z,0
2019-04-16T00:39:10.801Z,0
2019-04-16T00:40:11.498Z,0
2019-04-16T00:41:12.193Z,0
2019-04-16T00:42:13.003Z,0
2019-04-16T00:43:13.679Z,0
2019-04-16T00:44:14.361Z,0
2019-04-16T00:45:15.050Z,0
2019-04-16T00:46:15.835Z,0
2019-04-16T00:47:16.531Z,0
2019-04-16T00:48:17.220Z,0
2019-04-16T00:49:17.892Z,0
2019-04-16T00:50:18.590Z,0
2019-04-16T00:51:19.256Z,0
2019-04-16T00:52:19.941Z,0
2019-04-16T00:53:20.624Z,0
2019-04-16T00:54:21.312Z,0
2019-04-16T00:55:21.991Z,0
2019-04-16T00:56:22.672Z,0
2019-04-16T00:57:23.365Z,0
2019-04-16T00:58:24.033Z,0
2019-04-16T00:59:24.943Z,0
2019-04-16T01:00:27.763Z,0
2019-04-16T01:01:26.122Z,0
2019-04-16T01:02:26.815Z,0
2019-04-16T01:03:27.473Z,0
2019-04-16T01:04:28.165Z,0
2019-04-16T01:05:28.849Z,0
2019-04-16T01:06:29.532Z,0
2019-04-16T01:07:30.215Z,0
2019-04-16T01:08:30.923Z,0
2019-04-16T01:09:31.607Z,0
2019-04-16T01:10:32.274Z,0
2019-04-16T01:11:32.981Z,0
2019-04-16T01:12:33.646Z,0
2019-04-16T01:13:34.339Z,0
2019-04-16T01:14:35.029Z,0
2019-04-16T01:15:35.718Z,0
2019-04-16T01:16:36.409Z,0
2019-04-16T01:17:37.091Z,0
2019-04-16T01:18:38.775Z,0
2019-04-16T01:19:41.050Z,0
2019-04-16T01:20:40.453Z,0
2019-04-16T01:21:44.296Z,0
2019-04-16T01:22:41.510Z,0
2019-04-16T01:23:42.154Z,0
2019-04-16T01:24:42.841Z,0
2019-04-16T01:25:43.521Z,0
2019-04-16T01:26:44.204Z,0
2019-04-16T01:27:44.893Z,0
2019-04-16T01:28:45.593Z,0
2019-04-16T01:29:46.262Z,0
2019-04-16T01:30:46.948Z,0
2019-04-16T01:31:47.635Z,0
2019-04-16T01:32:48.318Z,0
2019-04-16T01:33:49.003Z,0
2019-04-16T01:34:49.686Z,0
2019-04-16T01:35:51.719Z,0
2019-04-16T01:36:51.408Z,0
2019-04-16T01:37:56.531Z,0
2019-04-16T01:38:52.408Z,0
2019-04-16T01:39:53.097Z,0
2019-04-16T01:40:53.792Z,0
2019-04-16T01:41:54.465Z,0
2019-04-16T01:42:55.322Z,0
2019-04-16T01:43:57.160Z,0
2019-04-16T01:44:59.343Z,0
2019-04-16T01:46:00.747Z,0
2019-04-16T01:46:58.047Z,0
2019-04-16T01:47:58.537Z,0
2019-04-16T01:48:59.217Z,0
2019-04-16T01:49:59.914Z,0
2019-04-16T01:51:00.754Z,0
2019-04-16T01:52:01.435Z,0
2019-04-16T01:53:02.107Z,0
2019-04-16T01:54:02.796Z,0
2019-04-16T01:55:03.478Z,0
2019-04-16T01:56:04.158Z,0
2019-04-16T01:57:04.841Z,0
2019-04-16T01:58:05.527Z,0
2019-04-16T01:59:06.268Z,0
2019-04-16T02:00:08.405Z,0
2019-04-16T02:01:08.071Z,0
2019-04-16T02:02:08.239Z,0
2019-04-16T02:03:08.925Z,0
2019-04-16T02:04:09.610Z,0
2019-04-16T02:05:10.288Z,0
2019-04-16T02:06:10.972Z,0
2019-04-16T02:07:11.803Z,0
2019-04-16T02:08:12.338Z,0
2019-04-16T02:09:22.358Z,0
2019-04-16T02:10:13.695Z,0
2019-04-16T02:11:14.401Z,0
2019-04-16T02:12:15.054Z,0
2019-04-16T02:13:15.963Z,0
2019-04-16T02:14:17.959Z,0
2019-04-16T02:15:21.655Z,0
2019-04-16T02:16:17.779Z,0
2019-04-16T02:17:18.468Z,0
2019-04-16T02:18:19.147Z,0
2019-04-16T02:19:19.832Z,0
2019-04-16T02:20:20.482Z,0
2019-04-16T02:21:21.160Z,0
2019-04-16T02:22:21.856Z,0
2019-04-16T02:23:22.530Z,0
2019-04-16T02:24:23.230Z,0
2019-04-16T02:25:23.863Z,0
2019-04-16T02:26:24.556Z,0
2019-04-16T02:27:26.251Z,0
2019-04-16T02:28:28.303Z,0
2019-04-16T02:29:29.724Z,0
2019-04-16T02:30:27.286Z,0
2019-04-16T02:31:28.195Z,0
2019-04-16T02:32:28.879Z,0
2019-04-16T02:33:29.558Z,0
2019-04-16T02:34:30.241Z,0
2019-04-16T02:35:30.940Z,0
2019-04-16T02:36:31.611Z,0
2019-04-16T02:37:35.987Z,0
2019-04-16T02:38:33.978Z,0
2019-04-16T02:39:47.528Z,0
2019-04-16T02:40:35.284Z,0
2019-04-16T02:41:35.984Z,0
2019-04-16T02:42:36.648Z,0
2019-04-16T02:43:40.878Z,0
2019-04-16T02:44:38.016Z,0
2019-04-16T02:45:38.700Z,0
2019-04-16T02:46:39.382Z,0
2019-04-16T02:47:42.208Z,0
2019-04-16T02:48:40.728Z,0
2019-04-16T02:49:41.415Z,0
2019-04-16T02:50:42.091Z,0
2019-04-16T02:51:42.778Z,0
2019-04-16T02:52:50.315Z,0
2019-04-16T02:53:45.115Z,0
2019-04-16T02:54:45.800Z,0
2019-04-16T02:55:46.481Z,0
2019-04-16T02:56:51.553Z,0
2019-04-16T02:57:47.848Z,0
2019-04-16T02:58:48.527Z,0
2019-04-16T02:59:49.196Z,0
2019-04-16T03:00:50.737Z,0
2019-04-16T03:01:51.918Z,0
2019-04-16T03:02:53.617Z,0
2019-04-16T03:03:55.572Z,0
2019-04-16T03:04:52.619Z,0
2019-04-16T03:05:53.274Z,0
2019-04-16T03:06:53.959Z,0
2019-04-16T03:07:54.643Z,0
2019-04-16T03:08:55.320Z,0
2019-04-16T03:10:01.396Z,0
2019-04-16T03:10:56.692Z,0
2019-04-16T03:11:57.377Z,0
2019-04-16T03:12:58.060Z,0
2019-04-16T03:13:59.483Z,0
2019-04-16T03:15:01.081Z,0
2019-04-16T03:16:02.885Z,0
2019-04-16T03:17:00.783Z,0
2019-04-16T03:18:01.454Z,0
2019-04-16T03:19:02.134Z,0
2019-04-16T03:20:02.814Z,0
2019-04-16T03:21:03.502Z,0
2019-04-16T03:22:04.180Z,0
2019-04-16T03:23:05.751Z,0
2019-04-16T03:24:08.252Z,0
2019-04-16T03:25:06.231Z,0
2019-04-16T03:26:06.992Z,0
2019-04-16T03:27:07.804Z,0
2019-04-16T03:28:08.270Z,0
2019-04-16T03:29:09.083Z,0
2019-04-16T03:30:09.628Z,0
2019-04-16T03:31:19.539Z,0
2019-04-16T03:32:14.201Z,0
2019-04-16T03:33:14.366Z,0
2019-04-16T03:34:12.843Z,0
2019-04-16T03:35:13.029Z,0
2019-04-16T03:36:13.757Z,0
2019-04-16T03:37:14.386Z,0
2019-04-16T03:38:15.065Z,0
2019-04-16T03:39:15.750Z,0
2019-04-16T03:40:18.649Z,0
2019-04-16T03:41:17.107Z,0
2019-04-16T03:42:17.785Z,0
2019-04-16T03:43:18.471Z,0
2019-04-16T03:44:19.157Z,0
2019-04-16T03:45:19.825Z,0
2019-04-16T03:46:20.506Z,0
2019-04-16T03:47:21.188Z,0
2019-04-16T03:48:23.458Z,0
2019-04-16T03:49:24.522Z,0
2019-04-16T03:50:23.232Z,0
2019-04-16T03:51:23.916Z,0
2019-04-16T03:52:24.766Z,4
2019-04-16T03:53:25.428Z,4
2019-04-16T03:54:26.103Z,0
2019-04-16T03:55:26.785Z,4
2019-04-16T03:56:30.259Z,0
2019-04-16T03:57:32.649Z,4
2019-04-16T03:58:28.809Z,4
2019-04-16T03:59:29.486Z,8
2019-04-16T04:00:30.170Z,8
2019-04-16T04:01:30.860Z,8
2019-04-16T04:02:31.541Z,12
2019-04-16T04:03:32.223Z,16
2019-04-16T04:04:32.905Z,16
2019-04-16T04:05:34.963Z,16
2019-04-16T04:06:36.480Z,20
2019-04-16T04:07:34.941Z,24
2019-04-16T04:08:35.627Z,32
2019-04-16T04:09:36.308Z,36
2019-04-16T04:10:37.809Z,40
2019-04-16T04:11:40.847Z,44
2019-04-16T04:12:38.355Z,52
2019-04-16T04:13:39.073Z,60
2019-04-16T04:14:39.749Z,72
2019-04-16T04:15:40.423Z,80
2019-04-16T04:16:41.099Z,92
2019-04-16T04:17:41.781Z,104
2019-04-16T04:18:43.187Z,116
2019-04-16T04:19:43.506Z,136
2019-04-16T04:20:43.820Z,152
2019-04-16T04:21:44.497Z,172
2019-04-16T04:22:45.183Z,188
2019-04-16T04:23:45.861Z,208
2019-04-16T04:24:46.551Z,232
2019-04-16T04:25:47.238Z,256
2019-04-16T04:26:47.927Z,280
2019-04-16T04:27:48.607Z,304
2019-04-16T04:28:51.755Z,332
2019-04-16T04:29:49.970Z,364
2019-04-16T04:30:50.669Z,396
2019-04-16T04:31:51.340Z,428
2019-04-16T04:32:52.022Z,464
2019-04-16T04:33:52.711Z,500
2019-04-16T04:34:53.393Z,536
2019-04-16T04:35:54.070Z,576
2019-04-16T04:36:58.712Z,616
2019-04-16T04:37:55.433Z,660
2019-04-16T04:38:56.119Z,704
2019-04-16T04:39:56.810Z,748
2019-04-16T04:40:59.781Z,792
2019-04-16T04:41:58.172Z,840
2019-04-16T04:43:01.008Z,888
2019-04-16T04:44:03.924Z,936
2019-04-16T04:45:00.211Z,984
2019-04-16T04:46:00.889Z,1032
2019-04-16T04:47:01.567Z,1088
2019-04-16T04:48:02.233Z,1136
2019-04-16T04:49:02.927Z,1196
2019-04-16T04:50:04.347Z,1248
2019-04-16T04:51:08.014Z,1300
2019-04-16T04:52:04.969Z,1352
2019-04-16T04:53:05.682Z,1412
2019-04-16T04:54:06.350Z,1464
2019-04-16T04:55:07.035Z,1520
2019-04-16T04:56:07.718Z,1576
2019-04-16T04:57:08.420Z,1632
2019-04-16T04:58:09.087Z,1692
2019-04-16T04:59:09.778Z,1744
2019-04-16T05:00:10.693Z,1804
2019-04-16T05:01:13.338Z,1860
2019-04-16T05:02:14.265Z,1916
2019-04-16T05:03:15.523Z,1972
2019-04-16T05:04:13.171Z,2032
2019-04-16T05:05:13.851Z,2088
2019-04-16T05:06:14.541Z,2144
2019-04-16T05:07:15.229Z,2204
2019-04-16T05:08:15.914Z,2260
2019-04-16T05:09:16.597Z,2316
2019-04-16T05:10:17.472Z,2368
2019-04-16T05:11:17.966Z,2424
2019-04-16T05:12:21.294Z,2480
2019-04-16T05:13:23.945Z,2536
2019-04-16T05:14:20.273Z,2596
2019-04-16T05:15:20.959Z,2652
2019-04-16T05:16:21.644Z,2708
2019-04-16T05:17:22.340Z,2768
2019-04-16T05:18:23.021Z,2828
2019-04-16T05:19:23.706Z,2880
2019-04-16T05:20:24.387Z,2940
2019-04-16T05:21:25.072Z,2996
2019-04-16T05:22:25.761Z,3048
2019-04-16T05:23:26.449Z,3104
2019-04-16T05:24:29.154Z,3164
2019-04-16T05:25:33.031Z,3224
2019-04-16T05:26:28.498Z,3272
2019-04-16T05:27:29.639Z,3332
2019-04-16T05:28:29.863Z,3392
2019-04-16T05:29:30.548Z,3448
2019-04-16T05:30:31.229Z,3504
2019-04-16T05:31:31.924Z,3572
2019-04-16T05:32:33.866Z,3636
2019-04-16T05:33:34.450Z,3704
2019-04-16T05:34:34.605Z,3768
2019-04-16T05:35:34.853Z,3848
2019-04-16T05:36:35.531Z,3916
2019-04-16T05:37:36.225Z,3980
2019-04-16T05:38:36.902Z,4004
2019-04-16T05:39:37.592Z,4052
2019-04-16T05:40:38.281Z,4128
2019-04-16T05:41:38.977Z,4168
2019-04-16T05:42:39.658Z,4196
2019-04-16T05:43:40.337Z,4248
2019-04-16T05:44:41.021Z,4300
2019-04-16T05:45:41.717Z,4360
2019-04-16T05:46:46.470Z,4400
2019-04-16T05:47:43.083Z,4448
2019-04-16T05:48:43.777Z,4508
2019-04-16T05:49:44.451Z,4536
2019-04-16T05:50:45.156Z,4584
2019-04-16T05:51:45.825Z,4628
2019-04-16T05:52:46.511Z,4676
2019-04-16T05:53:47.195Z,4796
2019-04-16T05:54:47.877Z,4964
2019-04-16T05:55:49.950Z,4816
2019-04-16T05:56:49.247Z,4868
2019-04-16T05:57:49.939Z,4900
2019-04-16T05:58:50.628Z,4976
2019-04-16T05:59:51.277Z,5004
2019-04-16T06:00:51.959Z,5056
2019-04-16T06:01:52.642Z,5048
2019-04-16T06:02:53.330Z,5096
2019-04-16T06:03:54.245Z,5116
2019-04-16T06:04:55.834Z,5160
2019-04-16T06:05:56.362Z,5204
2019-04-16T06:06:56.056Z,5236
2019-04-16T06:07:56.740Z,5284
2019-04-16T06:08:57.432Z,5324
2019-04-16T06:09:58.119Z,5360
2019-04-16T06:10:58.796Z,5404
2019-04-16T06:11:59.478Z,5464
2019-04-16T06:13:00.167Z,5476
2019-04-16T06:14:00.848Z,5512
2019-04-16T06:15:01.537Z,5564
2019-04-16T06:16:02.234Z,5612
2019-04-16T06:17:02.912Z,5664
2019-04-16T06:18:05.372Z,5720
2019-04-16T06:19:04.279Z,5748
2019-04-16T06:20:04.964Z,5712
2019-04-16T06:21:05.647Z,5836
2019-04-16T06:22:06.334Z,5876
2019-04-16T06:23:07.017Z,5908
2019-04-16T06:24:07.709Z,5936
2019-04-16T06:25:10.664Z,5984
2019-04-16T06:26:14.780Z,6000
2019-04-16T06:27:09.787Z,6216
2019-04-16T06:28:10.446Z,6400
2019-04-16T06:29:11.124Z,6148
2019-04-16T06:30:11.811Z,6228
2019-04-16T06:31:12.496Z,6276
2019-04-16T06:32:13.186Z,6220
2019-04-16T06:33:13.877Z,6476
2019-04-16T06:34:14.559Z,6368
2019-04-16T06:35:15.244Z,6340
2019-04-16T06:36:15.932Z,6372
2019-04-16T06:37:20.730Z,6468
2019-04-16T06:38:17.496Z,6428
2019-04-16T06:39:17.980Z,6464
2019-04-16T06:40:18.666Z,6500
2019-04-16T06:41:19.430Z,6544
2019-04-16T06:42:22.473Z,6564
2019-04-16T06:43:25.269Z,6648
2019-04-16T06:44:21.397Z,6616
2019-04-16T06:45:22.091Z,6736
2019-04-16T06:46:22.778Z,6708
2019-04-16T06:47:23.458Z,6764
2019-04-16T06:48:24.143Z,6796
2019-04-16T06:49:24.831Z,7068
2019-04-16T06:50:32.513Z,7044
2019-04-16T06:51:26.296Z,6932
2019-04-16T06:52:26.888Z,7168
2019-04-16T06:53:30.030Z,6996
2019-04-16T06:54:32.061Z,7004
2019-04-16T06:55:28.928Z,7052
2019-04-16T06:56:29.616Z,7092
2019-04-16T06:57:30.300Z,7372
2019-04-16T06:58:30.986Z,7752
2019-04-16T06:59:31.681Z,8344
2019-04-16T07:00:35.046Z,9404
2019-04-16T07:01:36.798Z,9044
2019-04-16T07:02:37.280Z,7520
2019-04-16T07:03:34.412Z,8880
2019-04-16T07:04:35.103Z,12580
2019-04-16T07:05:35.796Z,15040
2019-04-16T07:06:37.153Z,9544
2019-04-16T07:07:39.905Z,7688
2019-04-16T07:08:41.626Z,11468
2019-04-16T07:09:41.671Z,11776
2019-04-16T07:10:44.618Z,7840
2019-04-16T07:11:39.948Z,7696
2019-04-16T07:12:40.667Z,7708
2019-04-16T07:13:42.261Z,7736
2019-04-16T07:14:42.009Z,7700
2019-04-16T07:15:42.696Z,9276
2019-04-16T07:16:43.423Z,8744
2019-04-16T07:17:44.129Z,8116
2019-04-16T07:18:44.794Z,7956
2019-04-16T07:19:45.484Z,15292
2019-04-16T07:20:46.642Z,17536
2019-04-16T07:21:49.602Z,11204
2019-04-16T07:22:47.536Z,8716
2019-04-16T07:23:48.264Z,9284
2019-04-16T07:24:48.909Z,10424
2019-04-16T07:25:50.032Z,10324
2019-04-16T07:26:50.339Z,9052
2019-04-16T07:27:52.725Z,19520
2019-04-16T07:28:51.657Z,15856
2019-04-16T07:29:52.376Z,11128
2019-04-16T07:30:53.567Z,13476
2019-04-16T07:31:54.284Z,10428
2019-04-16T07:32:54.394Z,31424
2019-04-16T07:33:55.082Z,35968
2019-04-16T07:34:55.750Z,24896
2019-04-16T07:35:56.436Z,41248
2019-04-16T07:37:00.455Z,35520
2019-04-16T07:37:57.809Z,32480
2019-04-16T07:38:58.528Z,23072
2019-04-16T07:39:59.199Z,34272
2019-04-16T07:40:59.878Z,24512
2019-04-16T07:42:09.538Z,37760
2019-04-16T07:43:01.256Z,19040
2019-04-16T07:44:08.137Z,18112
2019-04-16T07:45:02.652Z,23072
2019-04-16T07:46:03.382Z,27968
2019-04-16T07:47:04.050Z,42624
2019-04-16T07:48:06.706Z,13180
2019-04-16T07:49:05.420Z,6644
2019-04-16T07:50:06.114Z,16480
2019-04-16T07:51:06.806Z,43552
2019-04-16T07:52:11.740Z,9652
2019-04-16T07:53:13.176Z,20576
2019-04-16T07:54:08.874Z,9220
2019-04-16T07:55:09.564Z,12716
2019-04-16T07:56:10.258Z,25856
2019-04-16T07:57:11.124Z,24960
2019-04-16T07:58:11.647Z,20480
2019-04-16T07:59:12.318Z,12052
2019-04-16T08:00:13.023Z,46272
2019-04-16T08:01:16.405Z,36192
2019-04-16T08:02:14.422Z,43392
2019-04-16T08:03:15.101Z,27904
2019-04-16T08:04:23.346Z,16996
2019-04-16T08:05:16.465Z,11408
2019-04-16T08:06:17.157Z,32160
2019-04-16T08:07:20.623Z,38208
2019-04-16T08:08:18.538Z,47936
2019-04-16T08:09:19.228Z,48704
2019-04-16T08:10:19.924Z,38400
2019-04-16T08:11:23.072Z,42400
2019-04-16T08:12:29.893Z,46368
2019-04-16T08:13:21.986Z,46112
2019-04-16T08:14:22.675Z,40832
2019-04-16T08:15:23.427Z,38944
2019-04-16T08:16:24.111Z,19168
2019-04-16T08:17:24.808Z,48672
2019-04-16T08:18:25.498Z,48512
2019-04-16T08:19:36.674Z,47328
2019-04-16T08:20:26.887Z,50848
2019-04-16T08:21:27.579Z,54816
2019-04-16T08:22:28.327Z,53120
2019-04-16T08:23:28.953Z,49344
2019-04-16T08:24:29.644Z,48736
2019-04-16T08:25:33.527Z,49376
2019-04-16T08:26:31.030Z,51616
2019-04-16T08:27:31.722Z,55168
2019-04-16T08:28:32.433Z,56000
2019-04-16T08:29:33.116Z,54144
2019-04-16T08:30:38.998Z,52128
2019-04-16T08:31:34.493Z,26400
2019-04-16T08:32:35.200Z,53792
2019-04-16T08:33:35.878Z,58048
2019-04-16T08:34:36.580Z,58624
2019-04-16T08:35:37.272Z,53856
2019-04-16T08:36:37.963Z,49024
2019-04-16T08:37:48.805Z,49280
2019-04-16T08:38:39.345Z,52992
2019-04-16T08:39:40.594Z,53472
2019-04-16T08:40:40.733Z,50464
2019-04-16T08:41:41.418Z,50592
2019-04-16T08:42:44.833Z,53024
2019-04-16T08:43:42.815Z,52960
2019-04-16T08:44:43.503Z,52608
2019-04-16T08:45:44.190Z,52544
2019-04-16T08:46:44.898Z,52928
2019-04-16T08:47:46.109Z,54432
2019-04-16T08:48:49.016Z,56928
2019-04-16T08:49:46.961Z,59872
2019-04-16T08:50:49.306Z,64096
2019-04-16T08:51:48.352Z,65472
2019-04-16T08:52:49.049Z,61600
2019-04-16T08:53:49.735Z,57632
2019-04-16T08:54:54.548Z,57760
2019-04-16T08:55:51.120Z,61504
2019-04-16T08:56:51.815Z,62624
2019-04-16T08:57:52.514Z,60160
2019-04-16T08:58:56.418Z,57952
2019-04-16T08:59:53.906Z,59872
2019-04-16T09:00:54.600Z,65696
2019-04-16T09:01:55.321Z,66112
2019-04-16T09:02:58.898Z,61760
2019-04-16T09:04:01.521Z,57824
2019-04-16T09:04:57.372Z,60768
2019-04-16T09:05:58.068Z,67808
2019-04-16T09:07:10.468Z,72992
2019-04-16T09:08:11.437Z,72672
2019-04-16T09:09:11.556Z,68416
2019-04-16T09:10:00.845Z,65856
2019-04-16T09:11:03.394Z,63776
2019-04-16T09:12:07.763Z,62784
2019-04-16T09:13:04.795Z,61184
2019-04-16T09:14:03.624Z,57632
2019-04-16T09:15:04.305Z,51744
2019-04-16T09:16:05.018Z,47360
2019-04-16T09:17:05.928Z,50752
2019-04-16T09:18:06.369Z,58240
2019-04-16T09:19:07.226Z,62688
2019-04-16T09:20:07.762Z,62080
2019-04-16T09:21:10.520Z,62528
2019-04-16T09:22:09.148Z,64736
2019-04-16T09:23:09.842Z,67584
2019-04-16T09:24:10.552Z,69824
2019-04-16T09:25:13.618Z,69312
2019-04-16T09:26:15.065Z,70240
2019-04-16T09:27:13.627Z,69824
2019-04-16T09:28:24.553Z,67456
2019-04-16T09:29:14.009Z,64800
2019-04-16T09:30:17.808Z,66560
2019-04-16T09:31:15.402Z,72544
2019-04-16T09:32:16.092Z,77600
2019-04-16T09:33:16.784Z,76640
2019-04-16T09:34:17.483Z,70336
2019-04-16T09:35:20.193Z,66432
2019-04-16T09:36:18.868Z,68576
2019-04-16T09:37:19.569Z,72384
2019-04-16T09:38:20.260Z,71392
2019-04-16T09:39:20.957Z,64352
2019-04-16T09:40:21.634Z,59680
2019-04-16T09:41:22.319Z,62848
2019-04-16T09:42:22.986Z,69440
2019-04-16T09:43:23.682Z,73472
2019-04-16T09:44:29.756Z,69984
2019-04-16T09:45:25.463Z,65504
2019-04-16T09:46:49.183Z,63360
2019-04-16T09:47:28.911Z,63872
2019-04-16T09:48:27.149Z,67264
2019-04-16T09:49:27.845Z,76800
2019-04-16T09:50:28.541Z,83040
2019-04-16T09:51:29.242Z,77568
2019-04-16T09:52:29.941Z,68640
2019-04-16T09:53:33.961Z,63264
2019-04-16T09:54:31.340Z,67936
2019-04-16T09:55:32.030Z,76320
2019-04-16T09:56:32.734Z,78720
2019-04-16T09:57:33.441Z,73088
2019-04-16T09:58:34.889Z,66080
2019-04-16T09:59:34.826Z,65216
2019-04-16T10:00:35.522Z,70624
2019-04-16T10:01:36.215Z,71168
2019-04-16T10:02:36.912Z,63712
2019-04-16T10:03:37.611Z,55328
2019-04-16T10:04:38.318Z,55424
2019-04-16T10:05:39.009Z,58560
2019-04-16T10:06:39.727Z,63936
2019-04-16T10:07:41.168Z,66528
2019-04-16T10:08:44.551Z,65728
2019-04-16T10:09:41.820Z,64288
2019-04-16T10:10:42.496Z,62560
2019-04-16T10:11:43.195Z,61024
2019-04-16T10:12:43.891Z,59648
2019-04-16T10:13:44.599Z,60864
2019-04-16T10:14:45.309Z,61632
2019-04-16T10:15:45.993Z,64000
2019-04-16T10:16:46.676Z,66976
2019-04-16T10:17:47.377Z,68608
2019-04-16T10:18:48.084Z,70752
2019-04-16T10:19:48.777Z,68416
2019-04-16T10:20:49.490Z,65248
2019-04-16T10:21:53.243Z,65248
2019-04-16T10:22:50.874Z,72224
2019-04-16T10:23:51.560Z,78304
2019-04-16T10:24:52.228Z,77344
2019-04-16T10:25:52.937Z,73184
2019-04-16T10:26:53.661Z,69792
2019-04-16T10:27:54.325Z,72288
2019-04-16T10:28:55.026Z,77472
2019-04-16T10:29:55.729Z,79008
2019-04-16T10:30:56.428Z,77248
2019-04-16T10:31:57.134Z,73312
2019-04-16T10:32:57.830Z,72416
2019-04-16T10:33:58.528Z,74720
2019-04-16T10:34:59.224Z,76192
2019-04-16T10:36:01.028Z,76352
2019-04-16T10:37:00.621Z,75840
2019-04-16T10:38:01.343Z,73440
2019-04-16T10:39:02.026Z,72736
2019-04-16T10:40:04.913Z,76608
2019-04-16T10:41:03.422Z,83648
2019-04-16T10:42:04.264Z,88224
2019-04-16T10:43:04.980Z,85760
2019-04-16T10:44:05.757Z,78592
2019-04-16T10:45:06.355Z,71744
2019-04-16T10:46:09.704Z,69760
2019-04-16T10:47:07.753Z,74336
2019-04-16T10:48:08.471Z,81856
2019-04-16T10:49:09.148Z,85376
2019-04-16T10:50:09.844Z,82784
2019-04-16T10:51:15.221Z,78176
2019-04-16T10:52:11.263Z,75488
2019-04-16T10:53:12.103Z,77568
2019-04-16T10:54:12.845Z,80864
2019-04-16T10:55:13.524Z,81824
2019-04-16T10:56:14.270Z,77056
2019-04-16T10:57:14.919Z,68736
2019-04-16T10:58:15.630Z,62400
2019-04-16T10:59:16.343Z,63488
2019-04-16T11:00:17.022Z,68128
2019-04-16T11:01:17.728Z,74432
2019-04-16T11:02:18.428Z,78400
2019-04-16T11:03:19.127Z,77824
2019-04-16T11:04:19.835Z,72576
2019-04-16T11:05:20.593Z,66784
2019-04-16T11:06:21.234Z,67168
2019-04-16T11:07:21.939Z,72064
2019-04-16T11:08:22.645Z,77536
2019-04-16T11:09:23.336Z,78400
2019-04-16T11:10:24.089Z,73472
2019-04-16T11:11:24.758Z,70560
2019-04-16T11:12:25.479Z,74368
2019-04-16T11:13:26.164Z,83616
2019-04-16T11:14:26.867Z,88640
2019-04-16T11:15:27.566Z,86592
2019-04-16T11:16:28.245Z,80864
2019-04-16T11:17:28.972Z,76256
2019-04-16T11:18:29.677Z,75808
2019-04-16T11:19:30.362Z,78912
2019-04-16T11:20:31.045Z,86144
2019-04-16T11:21:31.753Z,89952
2019-04-16T11:22:32.603Z,89312
2019-04-16T11:23:33.325Z,83168
2019-04-16T11:24:34.033Z,75808
2019-04-16T11:25:34.683Z,70688
2019-04-16T11:26:35.383Z,71744
2019-04-16T11:27:36.086Z,77728
2019-04-16T11:28:36.789Z,83168
2019-04-16T11:29:38.379Z,84544
2019-04-16T11:30:38.212Z,82816
2019-04-16T11:31:38.904Z,83488
2019-04-16T11:32:40.304Z,85824
2019-04-16T11:33:40.293Z,84192
2019-04-16T11:34:40.976Z,81216
2019-04-16T11:35:41.765Z,77056
2019-04-16T11:36:42.412Z,74720
2019-04-16T11:37:44.430Z,74080
2019-04-16T11:38:43.747Z,75296
2019-04-16T11:39:44.471Z,75360
2019-04-16T11:40:45.170Z,74528
2019-04-16T11:41:45.878Z,76128
2019-04-16T11:42:46.595Z,80064
2019-04-16T11:43:47.319Z,81856
2019-04-16T11:44:50.263Z,79680
2019-04-16T11:45:48.661Z,78368
2019-04-16T11:46:49.351Z,79776
2019-04-16T11:47:50.105Z,82816
2019-04-16T11:48:50.767Z,88128
2019-04-16T11:49:51.469Z,93952
2019-04-16T11:50:52.164Z,97600
2019-04-16T11:51:52.881Z,94144
2019-04-16T11:52:57.412Z,86720
2019-04-16T11:53:54.261Z,75136
2019-04-16T11:54:54.971Z,65856
2019-04-16T11:55:55.682Z,64544
2019-04-16T11:56:59.435Z,68512
2019-04-16T11:57:57.126Z,71776
2019-04-16T11:58:57.929Z,74080
2019-04-16T12:00:06.702Z,79008
2019-04-16T12:00:59.178Z,83392
2019-04-16T12:01:59.893Z,88096
2019-04-16T12:03:00.990Z,91936
2019-04-16T12:04:01.515Z,91040
2019-04-16T12:05:02.235Z,83488
2019-04-16T12:06:02.901Z,72864
2019-04-16T12:07:05.605Z,66272
2019-04-16T12:08:04.427Z,67264
2019-04-16T12:09:05.005Z,73184
2019-04-16T12:10:05.748Z,79968
2019-04-16T12:11:06.422Z,81024
2019-04-16T12:12:07.127Z,76640
2019-04-16T12:13:07.859Z,73152
2019-04-16T12:14:10.006Z,75296
2019-04-16T12:15:09.232Z,81856
2019-04-16T12:16:09.964Z,86976
2019-04-16T12:17:10.837Z,86688
2019-04-16T12:18:11.352Z,81216
2019-04-16T12:19:12.116Z,71072
2019-04-16T12:20:12.779Z,66240
2019-04-16T12:21:13.681Z,66944
2019-04-16T12:22:14.366Z,65568
2019-04-16T12:23:15.041Z,59584
2019-04-16T12:24:18.608Z,59168
2019-04-16T12:25:16.676Z,66880
2019-04-16T12:26:17.408Z,74176
2019-04-16T12:27:18.109Z,77536
2019-04-16T12:28:18.790Z,76672
2019-04-16T12:29:22.827Z,74144
2019-04-16T12:30:20.195Z,72000
2019-04-16T12:31:20.909Z,69088
2019-04-16T12:32:21.620Z,66816
2019-04-16T12:33:22.383Z,65824
2019-04-16T12:34:22.996Z,65888
2019-04-16T12:35:23.706Z,69728
2019-04-16T12:36:24.469Z,73152
2019-04-16T12:37:25.151Z,69728
2019-04-16T12:38:25.818Z,64352
2019-04-16T12:39:26.512Z,62656
2019-04-16T12:40:27.235Z,68640
2019-04-16T12:41:27.960Z,75872
2019-04-16T12:42:28.682Z,78240
2019-04-16T12:43:29.332Z,75360
2019-04-16T12:44:44.609Z,72928
2019-04-16T12:45:30.794Z,72832
2019-04-16T12:46:31.461Z,68512
2019-04-16T12:47:32.200Z,60960
2019-04-16T12:48:32.915Z,56128
2019-04-16T12:49:33.555Z,58144
2019-04-16T12:50:34.257Z,64864
2019-04-16T12:51:39.834Z,69856
2019-04-16T12:52:35.674Z,69440
2019-04-16T12:53:36.398Z,62400
2019-04-16T12:54:37.932Z,54880
2019-04-16T12:55:37.762Z,54560
2019-04-16T12:56:41.048Z,59840
2019-04-16T12:57:39.173Z,62944
2019-04-16T12:58:39.858Z,61216
2019-04-16T12:59:40.561Z,58880
2019-04-16T13:00:41.263Z,59392
2019-04-16T13:01:41.968Z,63488
2019-04-16T13:02:44.856Z,67104
2019-04-16T13:03:46.320Z,69472
2019-04-16T13:04:45.781Z,73664
2019-04-16T13:05:44.783Z,76576
2019-04-16T13:06:45.477Z,74528
2019-04-16T13:07:46.148Z,69056
2019-04-16T13:08:46.857Z,65632
2019-04-16T13:09:47.554Z,65984
2019-04-16T13:10:48.269Z,68864
2019-04-16T13:11:48.971Z,73696
2019-04-16T13:12:49.674Z,76032
2019-04-16T13:13:50.384Z,77568
2019-04-16T13:15:00.396Z,77088
2019-04-16T13:15:51.792Z,77088
2019-04-16T13:16:52.493Z,74080
2019-04-16T13:17:53.209Z,67584
2019-04-16T13:18:53.895Z,60768
2019-04-16T13:19:54.599Z,59296
2019-04-16T13:20:57.244Z,64128
2019-04-16T13:21:59.702Z,69888
2019-04-16T13:22:56.787Z,72480
2019-04-16T13:23:57.407Z,69632
2019-04-16T13:24:58.107Z,61600
2019-04-16T13:25:58.816Z,55520
2019-04-16T13:26:59.523Z,52960
2019-04-16T13:28:00.218Z,53760
2019-04-16T13:29:00.924Z,53472
2019-04-16T13:30:02.984Z,53376
2019-04-16T13:31:02.328Z,52448
2019-04-16T13:32:03.029Z,47168
2019-04-16T13:33:03.744Z,41280
2019-04-16T13:34:04.448Z,39392
2019-04-16T13:35:05.145Z,44736
2019-04-16T13:36:05.854Z,53120
2019-04-16T13:37:06.560Z,57664
2019-04-16T13:38:09.242Z,56224
2019-04-16T13:39:08.330Z,53600
2019-04-16T13:40:09.119Z,51936
2019-04-16T13:41:09.829Z,51904